sensor_id;sensor_type;location;lat;lon;timestamp;P1;durP1;ratioP1;P2;durP2;ratioP2
67272;SDS011;54190;49.770;9.250;2023-04-24T00:00:08;5.30;;;1.57;;
67272;SDS011;54190;49.770;9.250;2023-04-24T00:02:34;4.83;;;1.43;;
67272;SDS011;54190;49.770;9.250;2023-04-24T00:05:03;2.43;;;1.40;;
67272;SDS011;54190;49.770;9.250;2023-04-24T00:07:32;2.50;;;1.20;;
67272;SDS011;54190;49.770;9.250;2023-04-24T00:09:59;3.00;;;1.43;;
67272;SDS011;54190;49.770;9.250;2023-04-24T00:12:25;3.00;;;1.60;;
67272;SDS011;54190;49.770;9.250;2023-04-24T00:14:50;7.87;;;1.40;;
67272;SDS011;54190;49.770;9.250;2023-04-24T00:17:16;3.80;;;1.70;;
67272;SDS011;54190;49.770;9.250;2023-04-24T00:19:45;3.27;;;1.67;;
67272;SDS011;54190;49.770;9.250;2023-04-24T00:22:15;4.83;;;1.60;;
67272;SDS011;54190;49.770;9.250;2023-04-24T00:24:41;4.00;;;1.33;;
67272;SDS011;54190;49.770;9.250;2023-04-24T00:27:06;4.00;;;1.27;;
67272;SDS011;54190;49.770;9.250;2023-04-24T00:29:32;2.50;;;1.30;;
67272;SDS011;54190;49.770;9.250;2023-04-24T00:31:57;2.50;;;1.30;;
67272;SDS011;54190;49.770;9.250;2023-04-24T00:34:23;3.70;;;2.00;;
67272;SDS011;54190;49.770;9.250;2023-04-24T00:36:49;4.07;;;1.60;;
67272;SDS011;54190;49.770;9.250;2023-04-24T00:39:18;5.50;;;1.50;;
67272;SDS011;54190;49.770;9.250;2023-04-24T00:41:45;2.10;;;1.23;;
67272;SDS011;54190;49.770;9.250;2023-04-24T00:44:11;2.10;;;1.30;;
67272;SDS011;54190;49.770;9.250;2023-04-24T00:46:37;3.10;;;1.50;;
67272;SDS011;54190;49.770;9.250;2023-04-24T00:49:04;2.57;;;1.63;;
67272;SDS011;54190;49.770;9.250;2023-04-24T00:51:31;5.70;;;1.53;;
67272;SDS011;54190;49.770;9.250;2023-04-24T00:53:57;4.73;;;2.33;;
67272;SDS011;54190;49.770;9.250;2023-04-24T00:56:23;2.53;;;1.50;;
67272;SDS011;54190;49.770;9.250;2023-04-24T00:58:49;3.30;;;1.60;;
67272;SDS011;54190;49.770;9.250;2023-04-24T01:01:15;2.30;;;1.40;;
67272;SDS011;54190;49.770;9.250;2023-04-24T01:03:41;2.90;;;1.30;;
67272;SDS011;54190;49.770;9.250;2023-04-24T01:06:07;7.00;;;1.80;;
67272;SDS011;54190;49.770;9.250;2023-04-24T01:08:35;6.40;;;1.50;;
67272;SDS011;54190;49.770;9.250;2023-04-24T01:11:03;1.97;;;1.17;;
67272;SDS011;54190;49.770;9.250;2023-04-24T01:13:29;4.20;;;1.33;;
67272;SDS011;54190;49.770;9.250;2023-04-24T01:15:57;3.90;;;1.60;;
67272;SDS011;54190;49.770;9.250;2023-04-24T01:18:22;3.50;;;1.40;;
67272;SDS011;54190;49.770;9.250;2023-04-24T01:20:49;4.77;;;1.60;;
67272;SDS011;54190;49.770;9.250;2023-04-24T01:23:18;3.27;;;1.80;;
67272;SDS011;54190;49.770;9.250;2023-04-24T01:25:44;3.03;;;1.43;;
67272;SDS011;54190;49.770;9.250;2023-04-24T01:28:10;2.00;;;1.10;;
67272;SDS011;54190;49.770;9.250;2023-04-24T01:30:37;6.00;;;1.57;;
67272;SDS011;54190;49.770;9.250;2023-04-24T01:33:03;3.23;;;1.57;;
67272;SDS011;54190;49.770;9.250;2023-04-24T01:35:28;2.43;;;1.50;;
67272;SDS011;54190;49.770;9.250;2023-04-24T01:37:54;2.23;;;1.50;;
67272;SDS011;54190;49.770;9.250;2023-04-24T01:40:20;2.90;;;1.60;;
67272;SDS011;54190;49.770;9.250;2023-04-24T01:42:46;4.63;;;1.43;;
67272;SDS011;54190;49.770;9.250;2023-04-24T01:45:12;3.53;;;1.80;;
67272;SDS011;54190;49.770;9.250;2023-04-24T01:47:38;3.80;;;1.63;;
67272;SDS011;54190;49.770;9.250;2023-04-24T01:50:04;4.07;;;1.43;;
67272;SDS011;54190;49.770;9.250;2023-04-24T01:52:31;2.90;;;1.27;;
67272;SDS011;54190;49.770;9.250;2023-04-24T01:55:01;2.90;;;1.50;;
67272;SDS011;54190;49.770;9.250;2023-04-24T01:57:29;4.77;;;1.60;;
67272;SDS011;54190;49.770;9.250;2023-04-24T01:59:56;3.17;;;1.43;;
67272;SDS011;54190;49.770;9.250;2023-04-24T02:02:21;2.87;;;1.70;;
67272;SDS011;54190;49.770;9.250;2023-04-24T02:04:49;5.00;;;1.70;;
67272;SDS011;54190;49.770;9.250;2023-04-24T02:07:15;3.53;;;1.53;;
67272;SDS011;54190;49.770;9.250;2023-04-24T02:09:41;3.60;;;1.63;;
67272;SDS011;54190;49.770;9.250;2023-04-24T02:12:07;2.63;;;1.30;;
67272;SDS011;54190;49.770;9.250;2023-04-24T02:14:32;2.80;;;1.60;;
67272;SDS011;54190;49.770;9.250;2023-04-24T02:16:58;2.40;;;1.30;;
67272;SDS011;54190;49.770;9.250;2023-04-24T02:19:24;3.93;;;1.47;;
67272;SDS011;54190;49.770;9.250;2023-04-24T02:21:49;3.50;;;1.40;;
67272;SDS011;54190;49.770;9.250;2023-04-24T02:24:15;3.07;;;1.53;;
67272;SDS011;54190;49.770;9.250;2023-04-24T02:26:41;2.87;;;1.37;;
67272;SDS011;54190;49.770;9.250;2023-04-24T02:29:07;2.33;;;1.60;;
67272;SDS011;54190;49.770;9.250;2023-04-24T02:31:32;3.90;;;1.57;;
67272;SDS011;54190;49.770;9.250;2023-04-24T02:33:58;2.20;;;1.40;;
67272;SDS011;54190;49.770;9.250;2023-04-24T02:36:24;4.53;;;1.50;;
67272;SDS011;54190;49.770;9.250;2023-04-24T02:38:50;3.40;;;1.40;;
67272;SDS011;54190;49.770;9.250;2023-04-24T02:41:16;5.27;;;1.60;;
67272;SDS011;54190;49.770;9.250;2023-04-24T02:43:41;4.93;;;1.60;;
67272;SDS011;54190;49.770;9.250;2023-04-24T02:46:07;2.97;;;1.40;;
67272;SDS011;54190;49.770;9.250;2023-04-24T02:48:33;4.13;;;1.70;;
67272;SDS011;54190;49.770;9.250;2023-04-24T02:50:58;3.27;;;1.53;;
67272;SDS011;54190;49.770;9.250;2023-04-24T02:53:24;3.90;;;1.60;;
67272;SDS011;54190;49.770;9.250;2023-04-24T02:55:50;2.83;;;1.67;;
67272;SDS011;54190;49.770;9.250;2023-04-24T02:58:15;2.90;;;1.67;;
67272;SDS011;54190;49.770;9.250;2023-04-24T03:00:42;3.40;;;1.80;;
67272;SDS011;54190;49.770;9.250;2023-04-24T03:03:08;2.13;;;1.30;;
67272;SDS011;54190;49.770;9.250;2023-04-24T03:05:34;4.63;;;1.60;;
67272;SDS011;54190;49.770;9.250;2023-04-24T03:08:00;3.47;;;1.40;;
67272;SDS011;54190;49.770;9.250;2023-04-24T03:10:26;5.07;;;1.60;;
67272;SDS011;54190;49.770;9.250;2023-04-24T03:12:51;4.10;;;1.70;;
67272;SDS011;54190;49.770;9.250;2023-04-24T03:15:17;4.43;;;1.80;;
67272;SDS011;54190;49.770;9.250;2023-04-24T03:17:43;4.30;;;1.63;;
67272;SDS011;54190;49.770;9.250;2023-04-24T03:20:09;4.37;;;1.80;;
67272;SDS011;54190;49.770;9.250;2023-04-24T03:22:35;3.37;;;1.60;;
67272;SDS011;54190;49.770;9.250;2023-04-24T03:25:04;4.10;;;1.90;;
67272;SDS011;54190;49.770;9.250;2023-04-24T03:27:30;4.60;;;2.00;;
67272;SDS011;54190;49.770;9.250;2023-04-24T03:30:00;3.90;;;2.07;;
67272;SDS011;54190;49.770;9.250;2023-04-24T03:32:37;6.13;;;1.90;;
67272;SDS011;54190;49.770;9.250;2023-04-24T03:35:05;5.07;;;2.20;;
67272;SDS011;54190;49.770;9.250;2023-04-24T03:37:33;4.13;;;1.53;;
67272;SDS011;54190;49.770;9.250;2023-04-24T03:40:13;6.33;;;2.70;;
67272;SDS011;54190;49.770;9.250;2023-04-24T03:42:39;4.27;;;2.27;;
67272;SDS011;54190;49.770;9.250;2023-04-24T03:45:05;7.97;;;2.60;;
67272;SDS011;54190;49.770;9.250;2023-04-24T03:47:34;4.30;;;2.33;;
67272;SDS011;54190;49.770;9.250;2023-04-24T03:50:01;5.17;;;1.93;;
67272;SDS011;54190;49.770;9.250;2023-04-24T03:52:28;2.93;;;1.37;;
67272;SDS011;54190;49.770;9.250;2023-04-24T03:54:54;3.20;;;1.60;;
67272;SDS011;54190;49.770;9.250;2023-04-24T03:57:21;3.13;;;1.73;;
67272;SDS011;54190;49.770;9.250;2023-04-24T04:00:00;4.10;;;1.80;;
67272;SDS011;54190;49.770;9.250;2023-04-24T04:02:39;3.80;;;1.60;;
67272;SDS011;54190;49.770;9.250;2023-04-24T04:05:06;3.13;;;1.70;;
67272;SDS011;54190;49.770;9.250;2023-04-24T04:07:33;3.13;;;1.50;;
67272;SDS011;54190;49.770;9.250;2023-04-24T04:09:59;3.10;;;1.57;;
67272;SDS011;54190;49.770;9.250;2023-04-24T04:12:24;7.73;;;1.67;;
67272;SDS011;54190;49.770;9.250;2023-04-24T04:14:50;3.10;;;1.70;;
67272;SDS011;54190;49.770;9.250;2023-04-24T04:17:16;2.43;;;1.60;;
67272;SDS011;54190;49.770;9.250;2023-04-24T04:19:43;2.23;;;1.60;;
67272;SDS011;54190;49.770;9.250;2023-04-24T04:22:08;5.23;;;1.97;;
67272;SDS011;54190;49.770;9.250;2023-04-24T04:24:41;2.70;;;1.60;;
67272;SDS011;54190;49.770;9.250;2023-04-24T04:27:09;2.57;;;1.70;;
67272;SDS011;54190;49.770;9.250;2023-04-24T04:29:44;4.40;;;1.70;;
67272;SDS011;54190;49.770;9.250;2023-04-24T04:32:12;3.00;;;1.73;;
67272;SDS011;54190;49.770;9.250;2023-04-24T04:34:38;2.93;;;1.70;;
67272;SDS011;54190;49.770;9.250;2023-04-24T04:37:06;3.50;;;2.03;;
67272;SDS011;54190;49.770;9.250;2023-04-24T04:39:49;2.57;;;1.67;;
67272;SDS011;54190;49.770;9.250;2023-04-24T04:42:18;2.40;;;1.70;;
67272;SDS011;54190;49.770;9.250;2023-04-24T04:44:45;3.30;;;1.87;;
67272;SDS011;54190;49.770;9.250;2023-04-24T04:47:26;4.27;;;1.77;;
67272;SDS011;54190;49.770;9.250;2023-04-24T04:49:55;4.43;;;1.90;;
67272;SDS011;54190;49.770;9.250;2023-04-24T04:52:25;2.63;;;1.77;;
67272;SDS011;54190;49.770;9.250;2023-04-24T04:54:58;3.20;;;1.90;;
67272;SDS011;54190;49.770;9.250;2023-04-24T04:57:34;3.63;;;1.83;;
67272;SDS011;54190;49.770;9.250;2023-04-24T05:00:00;4.57;;;2.10;;
67272;SDS011;54190;49.770;9.250;2023-04-24T05:02:39;3.30;;;2.10;;
67272;SDS011;54190;49.770;9.250;2023-04-24T05:05:05;7.30;;;2.37;;
67272;SDS011;54190;49.770;9.250;2023-04-24T05:07:31;3.10;;;2.50;;
67272;SDS011;54190;49.770;9.250;2023-04-24T05:09:57;4.53;;;2.30;;
67272;SDS011;54190;49.770;9.250;2023-04-24T05:12:23;3.30;;;1.90;;
67272;SDS011;54190;49.770;9.250;2023-04-24T05:14:51;4.40;;;2.33;;
67272;SDS011;54190;49.770;9.250;2023-04-24T05:17:17;3.37;;;2.50;;
67272;SDS011;54190;49.770;9.250;2023-04-24T05:19:43;3.30;;;2.40;;
67272;SDS011;54190;49.770;9.250;2023-04-24T05:22:10;3.80;;;2.37;;
67272;SDS011;54190;49.770;9.250;2023-04-24T05:24:45;4.67;;;2.40;;
67272;SDS011;54190;49.770;9.250;2023-04-24T05:27:30;3.20;;;2.60;;
67272;SDS011;54190;49.770;9.250;2023-04-24T05:29:57;5.27;;;3.03;;
67272;SDS011;54190;49.770;9.250;2023-04-24T05:32:23;3.97;;;2.40;;
67272;SDS011;54190;49.770;9.250;2023-04-24T05:34:48;3.23;;;2.60;;
67272;SDS011;54190;49.770;9.250;2023-04-24T05:37:14;5.10;;;3.37;;
67272;SDS011;54190;49.770;9.250;2023-04-24T05:39:40;5.20;;;3.20;;
67272;SDS011;54190;49.770;9.250;2023-04-24T05:42:07;4.73;;;2.63;;
67272;SDS011;54190;49.770;9.250;2023-04-24T05:44:33;3.80;;;2.87;;
67272;SDS011;54190;49.770;9.250;2023-04-24T05:46:58;3.20;;;2.70;;
67272;SDS011;54190;49.770;9.250;2023-04-24T05:49:24;4.40;;;2.87;;
67272;SDS011;54190;49.770;9.250;2023-04-24T05:51:50;3.77;;;3.00;;
67272;SDS011;54190;49.770;9.250;2023-04-24T05:54:16;5.13;;;3.50;;
67272;SDS011;54190;49.770;9.250;2023-04-24T05:56:42;4.47;;;2.97;;
67272;SDS011;54190;49.770;9.250;2023-04-24T05:59:14;4.37;;;2.93;;
67272;SDS011;54190;49.770;9.250;2023-04-24T06:01:40;3.70;;;2.97;;
67272;SDS011;54190;49.770;9.250;2023-04-24T06:04:17;6.73;;;3.40;;
67272;SDS011;54190;49.770;9.250;2023-04-24T06:06:42;5.17;;;2.57;;
67272;SDS011;54190;49.770;9.250;2023-04-24T06:09:09;5.03;;;3.40;;
67272;SDS011;54190;49.770;9.250;2023-04-24T06:11:34;5.07;;;3.60;;
67272;SDS011;54190;49.770;9.250;2023-04-24T06:14:03;5.03;;;3.20;;
67272;SDS011;54190;49.770;9.250;2023-04-24T06:16:38;4.40;;;3.20;;
67272;SDS011;54190;49.770;9.250;2023-04-24T06:19:16;4.40;;;3.50;;
67272;SDS011;54190;49.770;9.250;2023-04-24T06:21:42;5.17;;;3.50;;
67272;SDS011;54190;49.770;9.250;2023-04-24T06:24:07;6.27;;;3.53;;
67272;SDS011;54190;49.770;9.250;2023-04-24T06:26:33;5.93;;;3.70;;
67272;SDS011;54190;49.770;9.250;2023-04-24T06:28:59;3.90;;;3.20;;
67272;SDS011;54190;49.770;9.250;2023-04-24T06:31:25;4.40;;;3.60;;
67272;SDS011;54190;49.770;9.250;2023-04-24T06:33:51;5.07;;;3.50;;
67272;SDS011;54190;49.770;9.250;2023-04-24T06:36:16;4.40;;;3.57;;
67272;SDS011;54190;49.770;9.250;2023-04-24T06:38:42;4.17;;;3.37;;
67272;SDS011;54190;49.770;9.250;2023-04-24T06:41:08;4.00;;;3.10;;
67272;SDS011;54190;49.770;9.250;2023-04-24T06:43:34;5.70;;;4.17;;
67272;SDS011;54190;49.770;9.250;2023-04-24T06:46:01;5.40;;;3.30;;
67272;SDS011;54190;49.770;9.250;2023-04-24T06:48:28;5.20;;;3.70;;
67272;SDS011;54190;49.770;9.250;2023-04-24T06:50:54;7.03;;;3.90;;
67272;SDS011;54190;49.770;9.250;2023-04-24T06:53:20;6.07;;;4.37;;
67272;SDS011;54190;49.770;9.250;2023-04-24T06:55:46;4.70;;;3.67;;
67272;SDS011;54190;49.770;9.250;2023-04-24T06:58:11;5.40;;;3.97;;
67272;SDS011;54190;49.770;9.250;2023-04-24T07:00:37;5.80;;;4.27;;
67272;SDS011;54190;49.770;9.250;2023-04-24T07:03:03;5.07;;;3.57;;
67272;SDS011;54190;49.770;9.250;2023-04-24T07:05:30;4.50;;;3.60;;
67272;SDS011;54190;49.770;9.250;2023-04-24T07:07:58;7.80;;;4.20;;
67272;SDS011;54190;49.770;9.250;2023-04-24T07:10:24;6.67;;;4.60;;
67272;SDS011;54190;49.770;9.250;2023-04-24T07:12:52;8.67;;;4.30;;
67272;SDS011;54190;49.770;9.250;2023-04-24T07:15:17;5.73;;;4.70;;
67272;SDS011;54190;49.770;9.250;2023-04-24T07:17:43;6.50;;;4.70;;
67272;SDS011;54190;49.770;9.250;2023-04-24T07:20:09;7.30;;;5.30;;
67272;SDS011;54190;49.770;9.250;2023-04-24T07:22:39;9.13;;;5.30;;
67272;SDS011;54190;49.770;9.250;2023-04-24T07:25:05;6.63;;;4.90;;
67272;SDS011;54190;49.770;9.250;2023-04-24T07:27:32;5.77;;;4.70;;
67272;SDS011;54190;49.770;9.250;2023-04-24T07:29:58;7.20;;;4.60;;
67272;SDS011;54190;49.770;9.250;2023-04-24T07:32:24;6.50;;;4.53;;
67272;SDS011;54190;49.770;9.250;2023-04-24T07:34:49;8.60;;;4.90;;
67272;SDS011;54190;49.770;9.250;2023-04-24T07:37:15;7.67;;;4.50;;
67272;SDS011;54190;49.770;9.250;2023-04-24T07:39:40;5.60;;;4.57;;
67272;SDS011;54190;49.770;9.250;2023-04-24T07:42:06;6.57;;;4.33;;
67272;SDS011;54190;49.770;9.250;2023-04-24T07:44:32;7.30;;;5.60;;
67272;SDS011;54190;49.770;9.250;2023-04-24T07:46:57;6.93;;;5.10;;
67272;SDS011;54190;49.770;9.250;2023-04-24T07:49:23;7.37;;;6.30;;
67272;SDS011;54190;49.770;9.250;2023-04-24T07:51:49;8.67;;;4.53;;
67272;SDS011;54190;49.770;9.250;2023-04-24T07:54:14;6.90;;;4.17;;
67272;SDS011;54190;49.770;9.250;2023-04-24T07:56:40;9.40;;;4.97;;
67272;SDS011;54190;49.770;9.250;2023-04-24T07:59:08;6.23;;;4.70;;
67272;SDS011;54190;49.770;9.250;2023-04-24T08:01:35;4.47;;;3.97;;
67272;SDS011;54190;49.770;9.250;2023-04-24T08:04:00;5.80;;;3.90;;
67272;SDS011;54190;49.770;9.250;2023-04-24T08:06:26;4.03;;;3.07;;
67272;SDS011;54190;49.770;9.250;2023-04-24T08:08:55;4.30;;;3.40;;
67272;SDS011;54190;49.770;9.250;2023-04-24T08:11:21;4.33;;;3.20;;
67272;SDS011;54190;49.770;9.250;2023-04-24T08:13:47;4.57;;;3.50;;
67272;SDS011;54190;49.770;9.250;2023-04-24T08:16:12;5.87;;;3.67;;
67272;SDS011;54190;49.770;9.250;2023-04-24T08:18:38;4.50;;;3.30;;
67272;SDS011;54190;49.770;9.250;2023-04-24T08:21:04;5.50;;;3.67;;
67272;SDS011;54190;49.770;9.250;2023-04-24T08:23:30;5.77;;;3.33;;
67272;SDS011;54190;49.770;9.250;2023-04-24T08:25:55;5.10;;;3.67;;
67272;SDS011;54190;49.770;9.250;2023-04-24T08:28:22;9.40;;;3.87;;
67272;SDS011;54190;49.770;9.250;2023-04-24T08:30:47;3.70;;;2.67;;
67272;SDS011;54190;49.770;9.250;2023-04-24T08:33:13;4.77;;;2.90;;
67272;SDS011;54190;49.770;9.250;2023-04-24T08:35:40;5.63;;;2.87;;
67272;SDS011;54190;49.770;9.250;2023-04-24T08:38:05;3.50;;;2.77;;
67272;SDS011;54190;49.770;9.250;2023-04-24T08:40:31;6.27;;;2.80;;
67272;SDS011;54190;49.770;9.250;2023-04-24T08:42:59;5.13;;;2.83;;
67272;SDS011;54190;49.770;9.250;2023-04-24T08:45:25;3.93;;;2.77;;
67272;SDS011;54190;49.770;9.250;2023-04-24T08:47:54;2.97;;;2.43;;
67272;SDS011;54190;49.770;9.250;2023-04-24T08:50:21;2.93;;;2.40;;
67272;SDS011;54190;49.770;9.250;2023-04-24T08:52:49;3.37;;;2.20;;
67272;SDS011;54190;49.770;9.250;2023-04-24T08:55:18;2.73;;;2.00;;
67272;SDS011;54190;49.770;9.250;2023-04-24T08:57:46;2.70;;;2.37;;
67272;SDS011;54190;49.770;9.250;2023-04-24T09:00:16;2.97;;;2.00;;
67272;SDS011;54190;49.770;9.250;2023-04-24T09:02:43;3.60;;;2.40;;
67272;SDS011;54190;49.770;9.250;2023-04-24T09:05:12;3.17;;;2.30;;
67272;SDS011;54190;49.770;9.250;2023-04-24T09:07:39;3.10;;;2.33;;
67272;SDS011;54190;49.770;9.250;2023-04-24T09:10:07;3.30;;;2.40;;
67272;SDS011;54190;49.770;9.250;2023-04-24T09:12:34;3.30;;;2.57;;
67272;SDS011;54190;49.770;9.250;2023-04-24T09:15:00;3.27;;;2.70;;
67272;SDS011;54190;49.770;9.250;2023-04-24T09:17:28;4.47;;;2.60;;
67272;SDS011;54190;49.770;9.250;2023-04-24T09:19:55;3.83;;;2.90;;
67272;SDS011;54190;49.770;9.250;2023-04-24T09:22:21;3.37;;;2.80;;
67272;SDS011;54190;49.770;9.250;2023-04-24T09:24:46;4.60;;;2.70;;
67272;SDS011;54190;49.770;9.250;2023-04-24T09:27:13;4.53;;;2.77;;
67272;SDS011;54190;49.770;9.250;2023-04-24T09:29:52;7.73;;;3.47;;
67272;SDS011;54190;49.770;9.250;2023-04-24T09:32:20;5.00;;;3.20;;
67272;SDS011;54190;49.770;9.250;2023-04-24T09:34:47;3.50;;;2.50;;
67272;SDS011;54190;49.770;9.250;2023-04-24T09:37:29;3.63;;;2.50;;
67272;SDS011;54190;49.770;9.250;2023-04-24T09:40:11;3.40;;;2.80;;
67272;SDS011;54190;49.770;9.250;2023-04-24T09:42:37;4.30;;;3.43;;
67272;SDS011;54190;49.770;9.250;2023-04-24T09:45:03;3.60;;;2.97;;
67272;SDS011;54190;49.770;9.250;2023-04-24T09:47:39;3.87;;;3.10;;
67272;SDS011;54190;49.770;9.250;2023-04-24T09:50:12;5.90;;;3.83;;
67272;SDS011;54190;49.770;9.250;2023-04-24T09:52:40;4.90;;;3.37;;
67272;SDS011;54190;49.770;9.250;2023-04-24T09:55:10;4.10;;;2.90;;
67272;SDS011;54190;49.770;9.250;2023-04-24T09:58:00;4.50;;;3.30;;
67272;SDS011;54190;49.770;9.250;2023-04-24T10:00:31;4.40;;;3.00;;
67272;SDS011;54190;49.770;9.250;2023-04-24T10:05:24;4.80;;;3.87;;
67272;SDS011;54190;49.770;9.250;2023-04-24T10:07:57;5.90;;;4.40;;
67272;SDS011;54190;49.770;9.250;2023-04-24T10:10:28;5.10;;;3.13;;
67272;SDS011;54190;49.770;9.250;2023-04-24T10:12:54;5.07;;;4.00;;
67272;SDS011;54190;49.770;9.250;2023-04-24T10:15:21;5.33;;;3.30;;
67272;SDS011;54190;49.770;9.250;2023-04-24T10:17:47;4.70;;;3.40;;
67272;SDS011;54190;49.770;9.250;2023-04-24T10:20:24;4.10;;;3.30;;
67272;SDS011;54190;49.770;9.250;2023-04-24T10:22:52;4.77;;;3.70;;
67272;SDS011;54190;49.770;9.250;2023-04-24T10:25:19;5.60;;;4.20;;
67272;SDS011;54190;49.770;9.250;2023-04-24T10:27:47;4.33;;;3.40;;
67272;SDS011;54190;49.770;9.250;2023-04-24T10:30:14;4.33;;;3.20;;
67272;SDS011;54190;49.770;9.250;2023-04-24T10:32:40;5.03;;;3.20;;
67272;SDS011;54190;49.770;9.250;2023-04-24T10:35:06;4.70;;;3.10;;
67272;SDS011;54190;49.770;9.250;2023-04-24T10:37:40;4.23;;;2.90;;
67272;SDS011;54190;49.770;9.250;2023-04-24T10:40:18;3.43;;;2.80;;
67272;SDS011;54190;49.770;9.250;2023-04-24T10:42:47;3.77;;;3.10;;
67272;SDS011;54190;49.770;9.250;2023-04-24T10:45:17;3.80;;;2.83;;
67272;SDS011;54190;49.770;9.250;2023-04-24T10:47:59;4.17;;;3.20;;
67272;SDS011;54190;49.770;9.250;2023-04-24T10:50:28;4.60;;;2.73;;
67272;SDS011;54190;49.770;9.250;2023-04-24T10:53:05;4.63;;;3.13;;
67272;SDS011;54190;49.770;9.250;2023-04-24T10:55:41;3.97;;;2.90;;
67272;SDS011;54190;49.770;9.250;2023-04-24T10:58:08;5.47;;;3.10;;
67272;SDS011;54190;49.770;9.250;2023-04-24T11:00:36;4.80;;;2.90;;
67272;SDS011;54190;49.770;9.250;2023-04-24T11:03:04;4.03;;;2.53;;
67272;SDS011;54190;49.770;9.250;2023-04-24T11:05:50;4.67;;;2.60;;
67272;SDS011;54190;49.770;9.250;2023-04-24T11:08:30;3.30;;;2.70;;
67272;SDS011;54190;49.770;9.250;2023-04-24T11:11:14;3.20;;;2.30;;
67272;SDS011;54190;49.770;9.250;2023-04-24T11:14:00;3.63;;;2.30;;
67272;SDS011;54190;49.770;9.250;2023-04-24T11:24:25;5.10;;;3.00;;
67272;SDS011;54190;49.770;9.250;2023-04-24T11:27:15;4.97;;;2.87;;
67272;SDS011;54190;49.770;9.250;2023-04-24T11:35:13;4.40;;;2.70;;
67272;SDS011;54190;49.770;9.250;2023-04-24T11:37:50;11.10;;;3.20;;
67272;SDS011;54190;49.770;9.250;2023-04-24T11:40:18;3.47;;;2.73;;
67272;SDS011;54190;49.770;9.250;2023-04-24T11:42:49;3.60;;;2.70;;
67272;SDS011;54190;49.770;9.250;2023-04-24T11:45:16;3.87;;;2.70;;
67272;SDS011;54190;49.770;9.250;2023-04-24T11:47:42;4.50;;;2.67;;
67272;SDS011;54190;49.770;9.250;2023-04-24T11:50:13;4.53;;;2.50;;
67272;SDS011;54190;49.770;9.250;2023-04-24T11:52:41;4.30;;;2.83;;
67272;SDS011;54190;49.770;9.250;2023-04-24T11:55:12;3.97;;;2.87;;
67272;SDS011;54190;49.770;9.250;2023-04-24T11:57:52;3.13;;;2.23;;
67272;SDS011;54190;49.770;9.250;2023-04-24T12:00:25;3.40;;;2.50;;
67272;SDS011;54190;49.770;9.250;2023-04-24T12:03:03;2.93;;;2.43;;
67272;SDS011;54190;49.770;9.250;2023-04-24T12:05:38;4.93;;;2.60;;
67272;SDS011;54190;49.770;9.250;2023-04-24T12:08:04;3.97;;;3.00;;
67272;SDS011;54190;49.770;9.250;2023-04-24T12:10:31;5.43;;;3.43;;
67272;SDS011;54190;49.770;9.250;2023-04-24T12:12:57;4.17;;;2.93;;
67272;SDS011;54190;49.770;9.250;2023-04-24T12:15:25;3.50;;;2.73;;
67272;SDS011;54190;49.770;9.250;2023-04-24T12:17:51;6.37;;;2.77;;
67272;SDS011;54190;49.770;9.250;2023-04-24T12:20:23;4.10;;;3.20;;
67272;SDS011;54190;49.770;9.250;2023-04-24T12:22:54;3.90;;;3.07;;
67272;SDS011;54190;49.770;9.250;2023-04-24T12:25:27;3.40;;;2.40;;
67272;SDS011;54190;49.770;9.250;2023-04-24T12:27:55;6.03;;;4.70;;
67272;SDS011;54190;49.770;9.250;2023-04-24T12:30:41;4.20;;;2.90;;
67272;SDS011;54190;49.770;9.250;2023-04-24T12:33:17;5.17;;;3.23;;
67272;SDS011;54190;49.770;9.250;2023-04-24T12:35:43;6.03;;;2.80;;
67272;SDS011;54190;49.770;9.250;2023-04-24T12:38:09;6.23;;;3.10;;
67272;SDS011;54190;49.770;9.250;2023-04-24T12:40:38;5.50;;;3.53;;
67272;SDS011;54190;49.770;9.250;2023-04-24T12:43:13;4.43;;;2.67;;
67272;SDS011;54190;49.770;9.250;2023-04-24T12:45:42;5.57;;;2.60;;
67272;SDS011;54190;49.770;9.250;2023-04-24T12:48:10;7.10;;;3.40;;
67272;SDS011;54190;49.770;9.250;2023-04-24T12:50:35;5.13;;;3.00;;
67272;SDS011;54190;49.770;9.250;2023-04-24T12:53:01;4.60;;;3.80;;
67272;SDS011;54190;49.770;9.250;2023-04-24T12:55:27;4.40;;;3.10;;
67272;SDS011;54190;49.770;9.250;2023-04-24T12:57:52;3.93;;;3.20;;
67272;SDS011;54190;49.770;9.250;2023-04-24T13:00:20;5.53;;;3.20;;
67272;SDS011;54190;49.770;9.250;2023-04-24T13:02:46;5.87;;;3.87;;
67272;SDS011;54190;49.770;9.250;2023-04-24T13:05:11;5.13;;;3.87;;
67272;SDS011;54190;49.770;9.250;2023-04-24T13:07:39;6.20;;;4.50;;
67272;SDS011;54190;49.770;9.250;2023-04-24T13:10:05;6.80;;;4.43;;
67272;SDS011;54190;49.770;9.250;2023-04-24T13:12:31;6.47;;;4.47;;
67272;SDS011;54190;49.770;9.250;2023-04-24T13:14:57;5.23;;;4.00;;
67272;SDS011;54190;49.770;9.250;2023-04-24T13:17:23;5.40;;;3.90;;
67272;SDS011;54190;49.770;9.250;2023-04-24T13:19:50;5.00;;;3.53;;
67272;SDS011;54190;49.770;9.250;2023-04-24T13:22:16;5.83;;;4.60;;
67272;SDS011;54190;49.770;9.250;2023-04-24T13:24:44;7.87;;;5.40;;
67272;SDS011;54190;49.770;9.250;2023-04-24T13:27:09;8.60;;;6.43;;
67272;SDS011;54190;49.770;9.250;2023-04-24T13:29:36;7.03;;;4.57;;
67272;SDS011;54190;49.770;9.250;2023-04-24T13:32:02;5.87;;;4.40;;
67272;SDS011;54190;49.770;9.250;2023-04-24T13:34:28;5.90;;;4.47;;
67272;SDS011;54190;49.770;9.250;2023-04-24T13:36:55;6.53;;;5.23;;
67272;SDS011;54190;49.770;9.250;2023-04-24T13:39:22;10.03;;;5.20;;
67272;SDS011;54190;49.770;9.250;2023-04-24T13:41:49;6.50;;;4.80;;
67272;SDS011;54190;49.770;9.250;2023-04-24T13:44:18;8.63;;;4.70;;
67272;SDS011;54190;49.770;9.250;2023-04-24T13:46:46;6.13;;;4.10;;
67272;SDS011;54190;49.770;9.250;2023-04-24T13:49:13;5.63;;;4.70;;
67272;SDS011;54190;49.770;9.250;2023-04-24T13:51:40;6.30;;;4.30;;
67272;SDS011;54190;49.770;9.250;2023-04-24T13:54:06;6.03;;;4.60;;
67272;SDS011;54190;49.770;9.250;2023-04-24T13:56:32;6.90;;;4.73;;
67272;SDS011;54190;49.770;9.250;2023-04-24T13:58:58;4.77;;;4.13;;
67272;SDS011;54190;49.770;9.250;2023-04-24T14:01:24;7.40;;;4.70;;
67272;SDS011;54190;49.770;9.250;2023-04-24T14:03:50;5.90;;;4.60;;
67272;SDS011;54190;49.770;9.250;2023-04-24T14:06:17;5.27;;;4.23;;
67272;SDS011;54190;49.770;9.250;2023-04-24T14:08:43;4.07;;;3.50;;
67272;SDS011;54190;49.770;9.250;2023-04-24T14:11:09;5.97;;;4.30;;
67272;SDS011;54190;49.770;9.250;2023-04-24T14:13:36;4.83;;;4.03;;
67272;SDS011;54190;49.770;9.250;2023-04-24T14:16:02;5.43;;;3.83;;
67272;SDS011;54190;49.770;9.250;2023-04-24T14:18:29;7.07;;;4.70;;
67272;SDS011;54190;49.770;9.250;2023-04-24T14:20:54;5.70;;;4.23;;
67272;SDS011;54190;49.770;9.250;2023-04-24T14:23:20;4.97;;;3.90;;
67272;SDS011;54190;49.770;9.250;2023-04-24T14:25:49;6.20;;;3.83;;
67272;SDS011;54190;49.770;9.250;2023-04-24T14:28:17;7.40;;;4.30;;
67272;SDS011;54190;49.770;9.250;2023-04-24T14:30:44;5.67;;;3.60;;
67272;SDS011;54190;49.770;9.250;2023-04-24T14:33:10;4.77;;;3.63;;
67272;SDS011;54190;49.770;9.250;2023-04-24T14:35:37;5.93;;;4.37;;
67272;SDS011;54190;49.770;9.250;2023-04-24T14:38:02;4.37;;;3.53;;
67272;SDS011;54190;49.770;9.250;2023-04-24T14:40:28;5.20;;;3.53;;
67272;SDS011;54190;49.770;9.250;2023-04-24T14:42:54;15.20;;;7.83;;
67272;SDS011;54190;49.770;9.250;2023-04-24T14:45:20;11.97;;;7.23;;
67272;SDS011;54190;49.770;9.250;2023-04-24T14:47:46;4.87;;;3.47;;
67272;SDS011;54190;49.770;9.250;2023-04-24T14:50:11;13.10;;;8.57;;
67272;SDS011;54190;49.770;9.250;2023-04-24T14:52:37;12.10;;;6.47;;
67272;SDS011;54190;49.770;9.250;2023-04-24T14:55:04;6.40;;;4.50;;
67272;SDS011;54190;49.770;9.250;2023-04-24T14:57:31;4.70;;;3.80;;
67272;SDS011;54190;49.770;9.250;2023-04-24T14:59:57;5.10;;;4.23;;
67272;SDS011;54190;49.770;9.250;2023-04-24T15:02:23;5.37;;;4.07;;
67272;SDS011;54190;49.770;9.250;2023-04-24T15:04:49;7.27;;;4.40;;
67272;SDS011;54190;49.770;9.250;2023-04-24T15:07:14;5.60;;;4.00;;